LEAMLEZL

Guest
Details From LEAM - Almeria
To LEZL - Sevilla
Flight Number -
Tags generated
Created
Modified
Stats Distance 172 nm / 319 km
Max Altitude 0 ft / 0 m
Waypoints 2
Social Downloads 0
Likes 0
Share VATSIM

Download

Looking for another format? Having issues loading an existing format? Contact us
Advertisement - Login to hide

Notes

Basic altitude profile: - Ascent Rate: 2500ft/min - Ascent Speed: 250kts - Cruise Altitude: 35000ft - Cruise Speed: 420kts - Descent Rate: 1500ft/min - Descent Speed: 250kts Options: - Use NATs: yes - Use PACOTS: no - Use low airways: no - Use high airways: no

Route

LEAM LEZL

ID Type Via Altitude (ft/m) Position (lat/lon) Dist (leg/tot) Name
O LEAM APT - 0 / 0 36.84390 / -2.37010 - / 0 nm Almeria
O LEZL APT - 0 / 0 37.41790 / -5.89309 172 / 172 nm Sevilla

Altitude Profile

Advertisement - Login to hide

Weather


0- 5 10 15 20 25 30 35+ Temperature / °C

Clouds and Precipitation
Forecast for 2019-02-18 00:00 UTC. Updated 4 hours ago

Ground ~20,000 ft ~40,000 ft Winds

LEAM

Details ICAO LEAM (LEI)
Name Almeria
Region Spain
Timezone Unknown
Stats Elevation 69 ft / 21 m (AMSL)
Location 36.843900° -2.370100°
Runways 1
Magnetic Variation 0.157° W

METAR

LEAM 180130Z AUTO 33011KT 9999 NCD 12/06 Q1021

Decode

TAF

TAF LEAM 172000Z 1721/1821 05007KT CAVOK TX19/1814Z TN09/1807Z

Decode

Departure Runways

ID Width Length Bearing (true/mag) Surface Threshold Overrun Markings Lighting
07 148 ft / 45 m 10,508 ft / 3,203 m 72.94° / 73.09° ASPHALT 515 ft / 157 m 0 ft / 0 m APP EDGE THRESHOLD MALS REIL-OMNI
25 148 ft / 45 m 10,508 ft / 3,203 m 252.96° / 253.12° ASPHALT 0 ft / 0 m 0 ft / 0 m PREC-APP EDGE THRESHOLD CALVERT REIL-OMNI

LEZL

Details ICAO LEZL (SVQ)
Name Sevilla
Region Spain
Timezone Europe/Madrid (UTC+1.0)
Stats Elevation 111 ft / 34 m (AMSL)
Location 37.417900° -5.893090°
Runways 1
Magnetic Variation 1.158° W

METAR

LEZL 180130Z AUTO 26001KT 9999 NCD 10/08 Q1018

Decode

TAF

TAF LEZL 172000Z 1721/1821 VRB03KT CAVOK TX17/1814Z TN09/1806Z PROB40 TEMPO 1808/1818 4000 RA BKN005

Decode

Destination Runways

ID Width Length Bearing (true/mag) Surface Threshold Overrun Markings Lighting
09 148 ft / 45 m 11,008 ft / 3,355 m 89.75° / 90.91° ASPHALT 0 ft / 0 m 164 ft / 50 m PREC-APP CENTERLINE EDGE THRESHOLD ALSF-I REIL-OMNI
27 148 ft / 45 m 11,008 ft / 3,355 m 269.77° / 270.93° ASPHALT 0 ft / 0 m 164 ft / 50 m PREC-APP CENTERLINE EDGE THRESHOLD ALSF-I REIL-OMNI

Approach Navaids

Runway Type Ident Frequency Range Bearing (true/mag) Slope Elevation
09 LOC-ILS ISE 111.10 MHz 18 nm / 33 km 89.77° / 90.93 ° - 111 ft / 34 m (AMSL)
09 DME ISE 111.10 MHz 18 nm / 33 km - - 102 ft / 31 m (AMSL)
09 GS ISE 111.10 MHz 10 nm / 19 km 90.51° / 91.67 ° 3.00° 111 ft / 34 m (AMSL)
27 DME ISV 110.10 MHz 18 nm / 33 km - - 22 ft / 7 m (AMSL)
27 GS ISV 110.10 MHz 10 nm / 19 km 270.51° / 271.67 ° 3.00° 22 ft / 7 m (AMSL)
27 LOC-ILS ISV 110.10 MHz 18 nm / 33 km 269.74° / 270.90 ° - 111 ft / 34 m (AMSL)

Popular Alternatives